sensor_id;sensor_type;location;lat;lon;timestamp;P1;durP1;ratioP1;P2;durP2;ratioP2
5833;SDS011;2943;48.012;10.968;2023-04-25T00:00:48;3.17;;;2.97;;
5833;SDS011;2943;48.012;10.968;2023-04-25T00:03:15;6.00;;;3.33;;
5833;SDS011;2943;48.012;10.968;2023-04-25T00:05:43;4.27;;;3.67;;
5833;SDS011;2943;48.012;10.968;2023-04-25T00:08:11;6.40;;;4.13;;
5833;SDS011;2943;48.012;10.968;2023-04-25T00:10:38;4.07;;;3.67;;
5833;SDS011;2943;48.012;10.968;2023-04-25T00:13:05;9.87;;;3.97;;
5833;SDS011;2943;48.012;10.968;2023-04-25T00:15:33;4.00;;;3.60;;
5833;SDS011;2943;48.012;10.968;2023-04-25T00:18:02;4.03;;;3.60;;
5833;SDS011;2943;48.012;10.968;2023-04-25T00:20:30;5.60;;;3.80;;
5833;SDS011;2943;48.012;10.968;2023-04-25T00:22:57;4.82;;;3.28;;
5833;SDS011;2943;48.012;10.968;2023-04-25T00:25:24;4.00;;;3.63;;
5833;SDS011;2943;48.012;10.968;2023-04-25T00:27:51;5.07;;;3.70;;
5833;SDS011;2943;48.012;10.968;2023-04-25T00:30:18;8.27;;;3.80;;
5833;SDS011;2943;48.012;10.968;2023-04-25T00:32:45;3.80;;;3.50;;
5833;SDS011;2943;48.012;10.968;2023-04-25T00:35:13;4.20;;;3.40;;
5833;SDS011;2943;48.012;10.968;2023-04-25T00:37:40;4.83;;;3.37;;
5833;SDS011;2943;48.012;10.968;2023-04-25T00:40:08;3.57;;;3.20;;
5833;SDS011;2943;48.012;10.968;2023-04-25T00:42:37;4.00;;;2.97;;
5833;SDS011;2943;48.012;10.968;2023-04-25T00:45:05;6.10;;;3.17;;
5833;SDS011;2943;48.012;10.968;2023-04-25T00:47:38;3.37;;;3.10;;
5833;SDS011;2943;48.012;10.968;2023-04-25T00:50:06;4.10;;;3.70;;
5833;SDS011;2943;48.012;10.968;2023-04-25T00:52:35;4.57;;;3.50;;
5833;SDS011;2943;48.012;10.968;2023-04-25T00:55:02;4.80;;;3.60;;
5833;SDS011;2943;48.012;10.968;2023-04-25T00:57:29;3.60;;;3.30;;
5833;SDS011;2943;48.012;10.968;2023-04-25T00:59:56;5.03;;;3.73;;
5833;SDS011;2943;48.012;10.968;2023-04-25T01:02:24;4.30;;;3.50;;
5833;SDS011;2943;48.012;10.968;2023-04-25T01:04:53;6.47;;;4.20;;
5833;SDS011;2943;48.012;10.968;2023-04-25T01:07:20;4.37;;;3.07;;
5833;SDS011;2943;48.012;10.968;2023-04-25T01:09:48;8.70;;;3.57;;
5833;SDS011;2943;48.012;10.968;2023-04-25T01:12:17;4.28;;;3.28;;
5833;SDS011;2943;48.012;10.968;2023-04-25T01:14:44;4.07;;;3.20;;
5833;SDS011;2943;48.012;10.968;2023-04-25T01:17:11;5.53;;;3.07;;
5833;SDS011;2943;48.012;10.968;2023-04-25T01:19:38;4.20;;;3.10;;
5833;SDS011;2943;48.012;10.968;2023-04-25T01:22:06;5.03;;;3.83;;
5833;SDS011;2943;48.012;10.968;2023-04-25T01:24:35;4.63;;;3.70;;
5833;SDS011;2943;48.012;10.968;2023-04-25T01:27:02;4.55;;;3.25;;
5833;SDS011;2943;48.012;10.968;2023-04-25T01:29:29;5.50;;;4.07;;
5833;SDS011;2943;48.012;10.968;2023-04-25T01:31:56;5.30;;;3.40;;
5833;SDS011;2943;48.012;10.968;2023-04-25T01:34:25;3.92;;;3.33;;
5833;SDS011;2943;48.012;10.968;2023-04-25T01:36:51;10.37;;;3.60;;
5833;SDS011;2943;48.012;10.968;2023-04-25T01:39:21;4.30;;;3.90;;
5833;SDS011;2943;48.012;10.968;2023-04-25T01:41:47;4.60;;;3.90;;
5833;SDS011;2943;48.012;10.968;2023-04-25T01:44:15;4.43;;;4.03;;
5833;SDS011;2943;48.012;10.968;2023-04-25T01:46:42;5.78;;;4.35;;
5833;SDS011;2943;48.012;10.968;2023-04-25T01:49:09;3.60;;;3.30;;
5833;SDS011;2943;48.012;10.968;2023-04-25T01:51:36;4.23;;;3.77;;
5833;SDS011;2943;48.012;10.968;2023-04-25T01:54:03;7.00;;;3.93;;
5833;SDS011;2943;48.012;10.968;2023-04-25T01:56:31;4.30;;;3.57;;
5833;SDS011;2943;48.012;10.968;2023-04-25T01:58:58;5.07;;;3.37;;
5833;SDS011;2943;48.012;10.968;2023-04-25T02:01:25;7.83;;;3.60;;
5833;SDS011;2943;48.012;10.968;2023-04-25T02:03:52;5.20;;;3.90;;
5833;SDS011;2943;48.012;10.968;2023-04-25T02:06:19;4.90;;;3.87;;
5833;SDS011;2943;48.012;10.968;2023-04-25T02:08:45;5.53;;;3.63;;
5833;SDS011;2943;48.012;10.968;2023-04-25T02:11:12;4.33;;;3.93;;
5833;SDS011;2943;48.012;10.968;2023-04-25T02:13:40;6.93;;;3.40;;
5833;SDS011;2943;48.012;10.968;2023-04-25T02:16:07;4.38;;;3.97;;
5833;SDS011;2943;48.012;10.968;2023-04-25T02:18:34;6.37;;;3.63;;
5833;SDS011;2943;48.012;10.968;2023-04-25T02:21:02;6.53;;;4.60;;
5833;SDS011;2943;48.012;10.968;2023-04-25T02:23:29;6.55;;;4.53;;
5833;SDS011;2943;48.012;10.968;2023-04-25T02:25:56;8.98;;;3.70;;
5833;SDS011;2943;48.012;10.968;2023-04-25T02:28:23;5.20;;;3.80;;
5833;SDS011;2943;48.012;10.968;2023-04-25T02:30:51;4.83;;;3.47;;
5833;SDS011;2943;48.012;10.968;2023-04-25T02:33:18;12.77;;;4.20;;
5833;SDS011;2943;48.012;10.968;2023-04-25T02:35:46;6.07;;;4.07;;
5833;SDS011;2943;48.012;10.968;2023-04-25T02:38:12;4.53;;;4.13;;
5833;SDS011;2943;48.012;10.968;2023-04-25T02:40:39;4.60;;;4.17;;
5833;SDS011;2943;48.012;10.968;2023-04-25T02:43:06;4.13;;;3.77;;
5833;SDS011;2943;48.012;10.968;2023-04-25T02:45:33;4.57;;;4.10;;
5833;SDS011;2943;48.012;10.968;2023-04-25T02:48:01;5.13;;;3.73;;
5833;SDS011;2943;48.012;10.968;2023-04-25T02:50:28;7.20;;;3.50;;
5833;SDS011;2943;48.012;10.968;2023-04-25T02:52:55;6.30;;;4.63;;
5833;SDS011;2943;48.012;10.968;2023-04-25T02:55:22;6.50;;;5.07;;
5833;SDS011;2943;48.012;10.968;2023-04-25T02:57:48;5.93;;;4.47;;
5833;SDS011;2943;48.012;10.968;2023-04-25T03:00:15;12.75;;;3.75;;
5833;SDS011;2943;48.012;10.968;2023-04-25T03:02:42;4.73;;;3.63;;
5833;SDS011;2943;48.012;10.968;2023-04-25T03:05:10;7.03;;;4.05;;
5833;SDS011;2943;48.012;10.968;2023-04-25T03:07:37;4.70;;;3.77;;
5833;SDS011;2943;48.012;10.968;2023-04-25T03:10:05;4.77;;;3.33;;
5833;SDS011;2943;48.012;10.968;2023-04-25T03:12:32;3.83;;;3.43;;
5833;SDS011;2943;48.012;10.968;2023-04-25T03:14:59;7.13;;;3.47;;
5833;SDS011;2943;48.012;10.968;2023-04-25T03:17:26;6.00;;;4.77;;
5833;SDS011;2943;48.012;10.968;2023-04-25T03:19:53;4.73;;;4.23;;
5833;SDS011;2943;48.012;10.968;2023-04-25T03:22:21;6.23;;;4.13;;
5833;SDS011;2943;48.012;10.968;2023-04-25T03:24:48;6.20;;;4.30;;
5833;SDS011;2943;48.012;10.968;2023-04-25T03:27:15;4.50;;;4.10;;
5833;SDS011;2943;48.012;10.968;2023-04-25T03:29:42;5.07;;;3.90;;
5833;SDS011;2943;48.012;10.968;2023-04-25T03:32:08;4.17;;;3.77;;
5833;SDS011;2943;48.012;10.968;2023-04-25T03:34:35;4.10;;;3.70;;
5833;SDS011;2943;48.012;10.968;2023-04-25T03:37:02;5.50;;;4.57;;
5833;SDS011;2943;48.012;10.968;2023-04-25T03:39:30;5.20;;;3.67;;
5833;SDS011;2943;48.012;10.968;2023-04-25T03:41:57;4.47;;;4.07;;
5833;SDS011;2943;48.012;10.968;2023-04-25T03:44:24;4.43;;;4.03;;
5833;SDS011;2943;48.012;10.968;2023-04-25T03:46:50;5.50;;;4.30;;
5833;SDS011;2943;48.012;10.968;2023-04-25T03:49:17;5.20;;;4.70;;
5833;SDS011;2943;48.012;10.968;2023-04-25T03:51:44;4.53;;;4.10;;
5833;SDS011;2943;48.012;10.968;2023-04-25T03:54:11;5.30;;;4.80;;
5833;SDS011;2943;48.012;10.968;2023-04-25T03:56:39;5.13;;;4.57;;
5833;SDS011;2943;48.012;10.968;2023-04-25T03:59:06;5.83;;;4.07;;
5833;SDS011;2943;48.012;10.968;2023-04-25T04:01:33;6.30;;;4.00;;
5833;SDS011;2943;48.012;10.968;2023-04-25T04:04:00;4.50;;;3.97;;
5833;SDS011;2943;48.012;10.968;2023-04-25T04:06:27;6.13;;;4.47;;
5833;SDS011;2943;48.012;10.968;2023-04-25T04:08:54;6.27;;;4.33;;
5833;SDS011;2943;48.012;10.968;2023-04-25T04:11:21;9.80;;;5.00;;
5833;SDS011;2943;48.012;10.968;2023-04-25T04:13:49;10.23;;;5.83;;
5833;SDS011;2943;48.012;10.968;2023-04-25T04:16:16;5.50;;;4.33;;
5833;SDS011;2943;48.012;10.968;2023-04-25T04:18:44;9.15;;;5.10;;
5833;SDS011;2943;48.012;10.968;2023-04-25T04:21:11;9.63;;;5.03;;
5833;SDS011;2943;48.012;10.968;2023-04-25T04:23:38;7.93;;;4.10;;
5833;SDS011;2943;48.012;10.968;2023-04-25T04:26:05;5.33;;;4.73;;
5833;SDS011;2943;48.012;10.968;2023-04-25T04:28:32;4.63;;;4.10;;
5833;SDS011;2943;48.012;10.968;2023-04-25T04:31:00;6.37;;;4.00;;
5833;SDS011;2943;48.012;10.968;2023-04-25T04:33:27;5.53;;;4.70;;
5833;SDS011;2943;48.012;10.968;2023-04-25T04:35:54;8.13;;;4.90;;
5833;SDS011;2943;48.012;10.968;2023-04-25T04:38:21;8.60;;;4.20;;
5833;SDS011;2943;48.012;10.968;2023-04-25T04:40:48;5.10;;;4.60;;
5833;SDS011;2943;48.012;10.968;2023-04-25T04:43:15;12.27;;;5.20;;
5833;SDS011;2943;48.012;10.968;2023-04-25T04:45:43;13.80;;;5.37;;
5833;SDS011;2943;48.012;10.968;2023-04-25T04:48:12;7.50;;;5.40;;
5833;SDS011;2943;48.012;10.968;2023-04-25T04:50:39;11.80;;;6.10;;
5833;SDS011;2943;48.012;10.968;2023-04-25T04:53:06;7.27;;;5.10;;
5833;SDS011;2943;48.012;10.968;2023-04-25T04:55:33;8.30;;;5.37;;
5833;SDS011;2943;48.012;10.968;2023-04-25T04:58:00;11.33;;;5.27;;
5833;SDS011;2943;48.012;10.968;2023-04-25T05:00:26;7.63;;;6.20;;
5833;SDS011;2943;48.012;10.968;2023-04-25T05:02:54;6.30;;;5.53;;
5833;SDS011;2943;48.012;10.968;2023-04-25T05:05:23;5.60;;;4.93;;
5833;SDS011;2943;48.012;10.968;2023-04-25T05:07:49;7.87;;;5.77;;
5833;SDS011;2943;48.012;10.968;2023-04-25T05:10:16;11.83;;;5.77;;
5833;SDS011;2943;48.012;10.968;2023-04-25T05:12:43;7.30;;;5.30;;
5833;SDS011;2943;48.012;10.968;2023-04-25T05:15:10;7.10;;;5.87;;
5833;SDS011;2943;48.012;10.968;2023-04-25T05:17:37;9.83;;;6.67;;
5833;SDS011;2943;48.012;10.968;2023-04-25T05:20:05;7.90;;;5.70;;
5833;SDS011;2943;48.012;10.968;2023-04-25T05:22:36;8.23;;;5.60;;
5833;SDS011;2943;48.012;10.968;2023-04-25T05:25:02;9.40;;;5.63;;
5833;SDS011;2943;48.012;10.968;2023-04-25T05:27:30;7.90;;;5.43;;
5833;SDS011;2943;48.012;10.968;2023-04-25T05:29:57;8.83;;;6.20;;
5833;SDS011;2943;48.012;10.968;2023-04-25T05:32:23;6.00;;;4.70;;
5833;SDS011;2943;48.012;10.968;2023-04-25T05:34:51;7.57;;;5.37;;
5833;SDS011;2943;48.012;10.968;2023-04-25T05:37:17;6.73;;;5.20;;
5833;SDS011;2943;48.012;10.968;2023-04-25T05:39:45;6.10;;;4.60;;
5833;SDS011;2943;48.012;10.968;2023-04-25T05:42:12;7.10;;;4.80;;
5833;SDS011;2943;48.012;10.968;2023-04-25T05:44:39;9.77;;;4.47;;
5833;SDS011;2943;48.012;10.968;2023-04-25T05:47:06;7.97;;;4.83;;
5833;SDS011;2943;48.012;10.968;2023-04-25T05:49:33;7.70;;;5.17;;
5833;SDS011;2943;48.012;10.968;2023-04-25T05:52:00;9.40;;;5.07;;
5833;SDS011;2943;48.012;10.968;2023-04-25T05:54:27;6.33;;;5.30;;
5833;SDS011;2943;48.012;10.968;2023-04-25T05:56:55;5.82;;;4.80;;
5833;SDS011;2943;48.012;10.968;2023-04-25T05:59:22;8.10;;;5.60;;
5833;SDS011;2943;48.012;10.968;2023-04-25T06:01:49;7.00;;;5.53;;
5833;SDS011;2943;48.012;10.968;2023-04-25T06:04:16;10.73;;;6.90;;
5833;SDS011;2943;48.012;10.968;2023-04-25T06:06:43;8.68;;;5.53;;
5833;SDS011;2943;48.012;10.968;2023-04-25T06:09:10;10.93;;;5.70;;
5833;SDS011;2943;48.012;10.968;2023-04-25T06:11:37;7.30;;;5.93;;
5833;SDS011;2943;48.012;10.968;2023-04-25T06:14:05;8.50;;;5.47;;
5833;SDS011;2943;48.012;10.968;2023-04-25T06:16:32;11.60;;;6.50;;
5833;SDS011;2943;48.012;10.968;2023-04-25T06:18:59;7.13;;;6.20;;
5833;SDS011;2943;48.012;10.968;2023-04-25T06:21:25;6.83;;;6.10;;
5833;SDS011;2943;48.012;10.968;2023-04-25T06:23:53;11.10;;;6.80;;
5833;SDS011;2943;48.012;10.968;2023-04-25T06:26:20;11.07;;;5.95;;
5833;SDS011;2943;48.012;10.968;2023-04-25T06:28:46;9.10;;;6.00;;
5833;SDS011;2943;48.012;10.968;2023-04-25T06:31:14;6.43;;;5.70;;
5833;SDS011;2943;48.012;10.968;2023-04-25T06:33:41;9.87;;;5.93;;
5833;SDS011;2943;48.012;10.968;2023-04-25T06:36:08;18.20;;;6.20;;
5833;SDS011;2943;48.012;10.968;2023-04-25T06:38:35;11.57;;;6.57;;
5833;SDS011;2943;48.012;10.968;2023-04-25T06:41:02;11.30;;;5.82;;
5833;SDS011;2943;48.012;10.968;2023-04-25T06:43:28;9.60;;;6.40;;
5833;SDS011;2943;48.012;10.968;2023-04-25T06:45:58;8.65;;;6.20;;
5833;SDS011;2943;48.012;10.968;2023-04-25T06:48:26;6.73;;;5.40;;
5833;SDS011;2943;48.012;10.968;2023-04-25T06:50:53;7.47;;;5.73;;
5833;SDS011;2943;48.012;10.968;2023-04-25T06:53:21;6.50;;;5.80;;
5833;SDS011;2943;48.012;10.968;2023-04-25T06:55:48;8.30;;;5.93;;
5833;SDS011;2943;48.012;10.968;2023-04-25T06:58:15;7.20;;;5.30;;
5833;SDS011;2943;48.012;10.968;2023-04-25T07:00:41;10.23;;;6.80;;
5833;SDS011;2943;48.012;10.968;2023-04-25T07:03:08;13.73;;;5.43;;
5833;SDS011;2943;48.012;10.968;2023-04-25T07:05:36;13.83;;;5.40;;
5833;SDS011;2943;48.012;10.968;2023-04-25T07:08:03;8.30;;;5.30;;
5833;SDS011;2943;48.012;10.968;2023-04-25T07:10:30;7.67;;;5.57;;
5833;SDS011;2943;48.012;10.968;2023-04-25T07:12:57;8.33;;;4.93;;
5833;SDS011;2943;48.012;10.968;2023-04-25T07:15:24;10.60;;;5.07;;
5833;SDS011;2943;48.012;10.968;2023-04-25T07:17:50;10.17;;;5.87;;
5833;SDS011;2943;48.012;10.968;2023-04-25T07:20:17;5.68;;;4.55;;
5833;SDS011;2943;48.012;10.968;2023-04-25T07:22:45;6.43;;;4.63;;
5833;SDS011;2943;48.012;10.968;2023-04-25T07:25:12;11.67;;;4.17;;
5833;SDS011;2943;48.012;10.968;2023-04-25T07:27:39;6.10;;;4.17;;
5833;SDS011;2943;48.012;10.968;2023-04-25T07:30:07;7.93;;;4.80;;
5833;SDS011;2943;48.012;10.968;2023-04-25T07:32:34;7.27;;;4.53;;
5833;SDS011;2943;48.012;10.968;2023-04-25T07:35:01;6.43;;;3.92;;
5833;SDS011;2943;48.012;10.968;2023-04-25T07:37:28;8.40;;;4.30;;
5833;SDS011;2943;48.012;10.968;2023-04-25T07:39:56;11.23;;;4.00;;
5833;SDS011;2943;48.012;10.968;2023-04-25T07:42:23;11.93;;;3.80;;
5833;SDS011;2943;48.012;10.968;2023-04-25T07:44:50;4.13;;;3.50;;
5833;SDS011;2943;48.012;10.968;2023-04-25T07:47:16;4.87;;;3.20;;
5833;SDS011;2943;48.012;10.968;2023-04-25T07:49:45;6.88;;;3.70;;
5833;SDS011;2943;48.012;10.968;2023-04-25T07:52:11;4.23;;;3.40;;
5833;SDS011;2943;48.012;10.968;2023-04-25T07:54:38;8.07;;;3.90;;
5833;SDS011;2943;48.012;10.968;2023-04-25T07:57:06;4.13;;;3.08;;
5833;SDS011;2943;48.012;10.968;2023-04-25T07:59:33;4.07;;;3.33;;
5833;SDS011;2943;48.012;10.968;2023-04-25T08:02:00;6.90;;;3.50;;
5833;SDS011;2943;48.012;10.968;2023-04-25T08:04:27;7.30;;;4.13;;
5833;SDS011;2943;48.012;10.968;2023-04-25T08:06:54;12.97;;;3.40;;
5833;SDS011;2943;48.012;10.968;2023-04-25T08:09:21;5.30;;;3.63;;
5833;SDS011;2943;48.012;10.968;2023-04-25T08:11:48;6.63;;;4.13;;
5833;SDS011;2943;48.012;10.968;2023-04-25T08:14:16;6.23;;;3.37;;
5833;SDS011;2943;48.012;10.968;2023-04-25T08:16:43;9.20;;;3.50;;
5833;SDS011;2943;48.012;10.968;2023-04-25T08:19:09;3.30;;;3.00;;
5833;SDS011;2943;48.012;10.968;2023-04-25T08:21:37;7.17;;;3.60;;
5833;SDS011;2943;48.012;10.968;2023-04-25T08:24:03;4.70;;;3.30;;
5833;SDS011;2943;48.012;10.968;2023-04-25T08:26:30;7.33;;;3.53;;
5833;SDS011;2943;48.012;10.968;2023-04-25T08:28:57;7.93;;;3.20;;
5833;SDS011;2943;48.012;10.968;2023-04-25T08:31:26;4.37;;;3.40;;
5833;SDS011;2943;48.012;10.968;2023-04-25T08:33:53;4.00;;;3.03;;
5833;SDS011;2943;48.012;10.968;2023-04-25T08:36:20;3.63;;;2.93;;
5833;SDS011;2943;48.012;10.968;2023-04-25T08:38:47;5.13;;;2.90;;
5833;SDS011;2943;48.012;10.968;2023-04-25T08:41:13;5.00;;;3.03;;
5833;SDS011;2943;48.012;10.968;2023-04-25T08:43:42;4.93;;;3.37;;
5833;SDS011;2943;48.012;10.968;2023-04-25T08:46:10;6.37;;;3.47;;
5833;SDS011;2943;48.012;10.968;2023-04-25T08:48:40;3.58;;;3.28;;
5833;SDS011;2943;48.012;10.968;2023-04-25T08:51:08;8.93;;;3.37;;
5833;SDS011;2943;48.012;10.968;2023-04-25T08:53:40;5.00;;;3.17;;
5833;SDS011;2943;48.012;10.968;2023-04-25T08:56:08;3.53;;;3.00;;
5833;SDS011;2943;48.012;10.968;2023-04-25T08:58:38;5.20;;;3.20;;
5833;SDS011;2943;48.012;10.968;2023-04-25T09:01:05;3.00;;;2.70;;
5833;SDS011;2943;48.012;10.968;2023-04-25T09:03:32;2.97;;;2.72;;
5833;SDS011;2943;48.012;10.968;2023-04-25T09:06:00;3.20;;;2.90;;
5833;SDS011;2943;48.012;10.968;2023-04-25T09:08:28;7.23;;;3.00;;
5833;SDS011;2943;48.012;10.968;2023-04-25T09:10:55;4.80;;;3.10;;
5833;SDS011;2943;48.012;10.968;2023-04-25T09:13:24;4.85;;;3.95;;
5833;SDS011;2943;48.012;10.968;2023-04-25T09:15:52;6.60;;;3.80;;
5833;SDS011;2943;48.012;10.968;2023-04-25T09:18:23;4.47;;;2.93;;
5833;SDS011;2943;48.012;10.968;2023-04-25T09:20:51;3.80;;;3.40;;
5833;SDS011;2943;48.012;10.968;2023-04-25T09:23:20;4.50;;;3.00;;
5833;SDS011;2943;48.012;10.968;2023-04-25T09:25:48;7.67;;;3.30;;
5833;SDS011;2943;48.012;10.968;2023-04-25T09:28:16;4.40;;;3.33;;
5833;SDS011;2943;48.012;10.968;2023-04-25T09:30:48;4.90;;;3.10;;
5833;SDS011;2943;48.012;10.968;2023-04-25T09:33:15;5.60;;;3.10;;
5833;SDS011;2943;48.012;10.968;2023-04-25T09:35:43;3.10;;;2.80;;
5833;SDS011;2943;48.012;10.968;2023-04-25T09:38:11;5.53;;;3.17;;
5833;SDS011;2943;48.012;10.968;2023-04-25T09:40:40;5.20;;;3.05;;
5833;SDS011;2943;48.012;10.968;2023-04-25T09:43:09;6.50;;;2.93;;
5833;SDS011;2943;48.012;10.968;2023-04-25T09:45:42;6.33;;;2.87;;
5833;SDS011;2943;48.012;10.968;2023-04-25T09:48:12;2.60;;;2.40;;
5833;SDS011;2943;48.012;10.968;2023-04-25T09:50:43;3.15;;;2.70;;
5833;SDS011;2943;48.012;10.968;2023-04-25T09:53:10;4.30;;;3.10;;
5833;SDS011;2943;48.012;10.968;2023-04-25T09:55:37;2.43;;;2.33;;
5833;SDS011;2943;48.012;10.968;2023-04-25T09:58:06;1.93;;;1.83;;
5833;SDS011;2943;48.012;10.968;2023-04-25T10:00:35;3.53;;;2.10;;
5833;SDS011;2943;48.012;10.968;2023-04-25T10:03:03;2.30;;;2.10;;
5833;SDS011;2943;48.012;10.968;2023-04-25T10:05:32;8.03;;;2.80;;
5833;SDS011;2943;48.012;10.968;2023-04-25T10:08:02;2.73;;;2.53;;
5833;SDS011;2943;48.012;10.968;2023-04-25T10:10:30;4.67;;;2.90;;
5833;SDS011;2943;48.012;10.968;2023-04-25T10:13:01;7.90;;;3.30;;
5833;SDS011;2943;48.012;10.968;2023-04-25T10:15:31;6.17;;;3.37;;
5833;SDS011;2943;48.012;10.968;2023-04-25T10:18:00;5.87;;;2.80;;
5833;SDS011;2943;48.012;10.968;2023-04-25T10:20:27;3.30;;;2.83;;
5833;SDS011;2943;48.012;10.968;2023-04-25T10:22:55;8.20;;;5.57;;
5833;SDS011;2943;48.012;10.968;2023-04-25T10:25:29;11.83;;;7.07;;
5833;SDS011;2943;48.012;10.968;2023-04-25T10:27:56;10.33;;;6.80;;
5833;SDS011;2943;48.012;10.968;2023-04-25T10:30:25;8.67;;;4.83;;
5833;SDS011;2943;48.012;10.968;2023-04-25T10:32:54;5.90;;;4.53;;
5833;SDS011;2943;48.012;10.968;2023-04-25T10:35:23;16.52;;;5.10;;
5833;SDS011;2943;48.012;10.968;2023-04-25T10:40:40;20.47;;;13.90;;
5833;SDS011;2943;48.012;10.968;2023-04-25T10:46:09;6.80;;;4.93;;
5833;SDS011;2943;48.012;10.968;2023-04-25T10:48:44;4.03;;;3.40;;
5833;SDS011;2943;48.012;10.968;2023-04-25T10:51:16;3.27;;;3.07;;
5833;SDS011;2943;48.012;10.968;2023-04-25T10:53:45;3.50;;;3.27;;
5833;SDS011;2943;48.012;10.968;2023-04-25T10:56:16;2.90;;;2.60;;
5833;SDS011;2943;48.012;10.968;2023-04-25T10:58:45;3.00;;;2.70;;
5833;SDS011;2943;48.012;10.968;2023-04-25T11:01:12;2.47;;;2.27;;
5833;SDS011;2943;48.012;10.968;2023-04-25T11:03:43;2.80;;;2.60;;
5833;SDS011;2943;48.012;10.968;2023-04-25T11:06:15;3.00;;;2.53;;
5833;SDS011;2943;48.012;10.968;2023-04-25T11:08:49;2.53;;;2.33;;
5833;SDS011;2943;48.012;10.968;2023-04-25T11:11:17;2.97;;;2.77;;
5833;SDS011;2943;48.012;10.968;2023-04-25T11:13:47;3.40;;;3.10;;
5833;SDS011;2943;48.012;10.968;2023-04-25T11:16:14;3.40;;;3.10;;
5833;SDS011;2943;48.012;10.968;2023-04-25T11:18:42;2.60;;;2.40;;
5833;SDS011;2943;48.012;10.968;2023-04-25T11:21:10;2.43;;;2.23;;
5833;SDS011;2943;48.012;10.968;2023-04-25T11:23:38;2.50;;;2.30;;
5833;SDS011;2943;48.012;10.968;2023-04-25T11:26:05;5.37;;;3.00;;
5833;SDS011;2943;48.012;10.968;2023-04-25T11:28:32;3.53;;;2.73;;
5833;SDS011;2943;48.012;10.968;2023-04-25T11:30:59;2.90;;;2.70;;
5833;SDS011;2943;48.012;10.968;2023-04-25T11:33:26;2.80;;;2.60;;
5833;SDS011;2943;48.012;10.968;2023-04-25T11:35:53;7.87;;;3.13;;
5833;SDS011;2943;48.012;10.968;2023-04-25T11:38:22;6.50;;;2.40;;
5833;SDS011;2943;48.012;10.968;2023-04-25T11:40:49;4.90;;;2.87;;
5833;SDS011;2943;48.012;10.968;2023-04-25T11:43:17;2.10;;;2.00;;
5833;SDS011;2943;48.012;10.968;2023-04-25T11:45:46;2.30;;;2.10;;
5833;SDS011;2943;48.012;10.968;2023-04-25T11:48:13;2.40;;;2.10;;
5833;SDS011;2943;48.012;10.968;2023-04-25T11:50:41;2.20;;;2.00;;
5833;SDS011;2943;48.012;10.968;2023-04-25T11:53:07;2.33;;;2.20;;
5833;SDS011;2943;48.012;10.968;2023-04-25T11:55:36;2.27;;;2.10;;
5833;SDS011;2943;48.012;10.968;2023-04-25T11:58:04;2.07;;;1.97;;
5833;SDS011;2943;48.012;10.968;2023-04-25T12:00:32;1.83;;;1.73;;
5833;SDS011;2943;48.012;10.968;2023-04-25T12:02:59;2.17;;;1.97;;
5833;SDS011;2943;48.012;10.968;2023-04-25T12:05:28;2.17;;;2.00;;
5833;SDS011;2943;48.012;10.968;2023-04-25T12:07:55;3.00;;;2.80;;
5833;SDS011;2943;48.012;10.968;2023-04-25T12:10:23;2.88;;;2.50;;
5833;SDS011;2943;48.012;10.968;2023-04-25T12:12:52;3.00;;;2.70;;
5833;SDS011;2943;48.012;10.968;2023-04-25T12:15:23;3.03;;;2.83;;
5833;SDS011;2943;48.012;10.968;2023-04-25T12:17:51;3.23;;;2.93;;
5833;SDS011;2943;48.012;10.968;2023-04-25T12:20:19;2.90;;;2.70;;
5833;SDS011;2943;48.012;10.968;2023-04-25T12:22:48;2.47;;;2.27;;
5833;SDS011;2943;48.012;10.968;2023-04-25T12:28:10;2.57;;;2.40;;
5833;SDS011;2943;48.012;10.968;2023-04-25T12:30:56;3.53;;;2.57;;
5833;SDS011;2943;48.012;10.968;2023-04-25T12:33:24;2.53;;;2.33;;
5833;SDS011;2943;48.012;10.968;2023-04-25T12:35:52;3.67;;;2.40;;
5833;SDS011;2943;48.012;10.968;2023-04-25T12:38:22;2.37;;;2.20;;
5833;SDS011;2943;48.012;10.968;2023-04-25T12:40:50;3.77;;;2.50;;
5833;SDS011;2943;48.012;10.968;2023-04-25T12:43:18;2.13;;;2.03;;
5833;SDS011;2943;48.012;10.968;2023-04-25T12:45:47;1.63;;;1.53;;
5833;SDS011;2943;48.012;10.968;2023-04-25T12:48:14;1.88;;;1.77;;
5833;SDS011;2943;48.012;10.968;2023-04-25T12:50:41;1.90;;;1.80;;
5833;SDS011;2943;48.012;10.968;2023-04-25T12:53:08;2.13;;;2.03;;
5833;SDS011;2943;48.012;10.968;2023-04-25T12:55:35;2.00;;;1.90;;
5833;SDS011;2943;48.012;10.968;2023-04-25T12:58:02;2.00;;;1.70;;
5833;SDS011;2943;48.012;10.968;2023-04-25T13:00:30;2.23;;;1.80;;
5833;SDS011;2943;48.012;10.968;2023-04-25T13:02:57;2.30;;;1.70;;
5833;SDS011;2943;48.012;10.968;2023-04-25T13:05:24;1.67;;;1.57;;
5833;SDS011;2943;48.012;10.968;2023-04-25T13:07:51;13.47;;;2.87;;
5833;SDS011;2943;48.012;10.968;2023-04-25T13:10:18;1.70;;;1.60;;
5833;SDS011;2943;48.012;10.968;2023-04-25T13:12:45;2.90;;;1.83;;
5833;SDS011;2943;48.012;10.968;2023-04-25T13:15:12;1.60;;;1.50;;
5833;SDS011;2943;48.012;10.968;2023-04-25T13:17:41;4.40;;;1.70;;
5833;SDS011;2943;48.012;10.968;2023-04-25T13:20:09;1.70;;;1.60;;
5833;SDS011;2943;48.012;10.968;2023-04-25T13:22:37;1.88;;;1.77;;
5833;SDS011;2943;48.012;10.968;2023-04-25T13:25:04;1.67;;;1.50;;
5833;SDS011;2943;48.012;10.968;2023-04-25T13:27:33;1.90;;;1.80;;
5833;SDS011;2943;48.012;10.968;2023-04-25T13:30:00;2.67;;;1.73;;
5833;SDS011;2943;48.012;10.968;2023-04-25T13:32:32;1.50;;;1.40;;
5833;SDS011;2943;48.012;10.968;2023-04-25T13:35:00;2.60;;;2.10;;
5833;SDS011;2943;48.012;10.968;2023-04-25T13:37:27;2.17;;;2.07;;
5833;SDS011;2943;48.012;10.968;2023-04-25T13:39:55;1.87;;;1.77;;
5833;SDS011;2943;48.012;10.968;2023-04-25T13:42:22;2.00;;;1.90;;
5833;SDS011;2943;48.012;10.968;2023-04-25T13:44:49;2.10;;;2.00;;
5833;SDS011;2943;48.012;10.968;2023-04-25T13:47:16;2.45;;;2.25;;
5833;SDS011;2943;48.012;10.968;2023-04-25T13:49:43;2.30;;;2.10;;
5833;SDS011;2943;48.012;10.968;2023-04-25T13:52:11;2.33;;;2.03;;
5833;SDS011;2943;48.012;10.968;2023-04-25T13:54:38;3.10;;;2.90;;
5833;SDS011;2943;48.012;10.968;2023-04-25T13:57:05;2.90;;;2.30;;
5833;SDS011;2943;48.012;10.968;2023-04-25T13:59:32;2.42;;;2.08;;
5833;SDS011;2943;48.012;10.968;2023-04-25T14:01:59;2.90;;;2.70;;
5833;SDS011;2943;48.012;10.968;2023-04-25T14:04:26;2.70;;;2.50;;
5833;SDS011;2943;48.012;10.968;2023-04-25T14:06:53;2.80;;;2.60;;
5833;SDS011;2943;48.012;10.968;2023-04-25T14:09:21;2.72;;;2.50;;
5833;SDS011;2943;48.012;10.968;2023-04-25T14:11:52;4.17;;;3.63;;
5833;SDS011;2943;48.012;10.968;2023-04-25T14:14:18;3.70;;;2.50;;
5833;SDS011;2943;48.012;10.968;2023-04-25T14:16:46;2.70;;;2.50;;
5833;SDS011;2943;48.012;10.968;2023-04-25T14:19:13;2.40;;;2.20;;
5833;SDS011;2943;48.012;10.968;2023-04-25T14:21:41;2.70;;;2.50;;
5833;SDS011;2943;48.012;10.968;2023-04-25T14:24:08;2.63;;;2.43;;
5833;SDS011;2943;48.012;10.968;2023-04-25T14:26:37;10.23;;;6.20;;
5833;SDS011;2943;48.012;10.968;2023-04-25T14:29:04;5.83;;;4.13;;
5833;SDS011;2943;48.012;10.968;2023-04-25T14:31:32;4.43;;;3.43;;
5833;SDS011;2943;48.012;10.968;2023-04-25T14:33:59;7.97;;;4.27;;
5833;SDS011;2943;48.012;10.968;2023-04-25T14:36:25;4.10;;;3.33;;
5833;SDS011;2943;48.012;10.968;2023-04-25T14:38:54;3.63;;;2.73;;
5833;SDS011;2943;48.012;10.968;2023-04-25T14:41:20;8.33;;;7.50;;
5833;SDS011;2943;48.012;10.968;2023-04-25T14:43:49;1.70;;;1.60;;
5833;SDS011;2943;48.012;10.968;2023-04-25T14:46:16;1.93;;;1.83;;
5833;SDS011;2943;48.012;10.968;2023-04-25T14:48:43;1.50;;;1.40;;
5833;SDS011;2943;48.012;10.968;2023-04-25T14:51:10;1.80;;;1.70;;
5833;SDS011;2943;48.012;10.968;2023-04-25T14:53:37;1.40;;;1.30;;
5833;SDS011;2943;48.012;10.968;2023-04-25T14:56:04;1.60;;;1.50;;
5833;SDS011;2943;48.012;10.968;2023-04-25T14:58:32;1.50;;;1.40;;
5833;SDS011;2943;48.012;10.968;2023-04-25T15:01:00;1.30;;;1.20;;
5833;SDS011;2943;48.012;10.968;2023-04-25T15:03:27;1.60;;;1.50;;
5833;SDS011;2943;48.012;10.968;2023-04-25T15:05:54;1.60;;;1.50;;
5833;SDS011;2943;48.012;10.968;2023-04-25T15:08:21;1.60;;;1.47;;
5833;SDS011;2943;48.012;10.968;2023-04-25T15:10:48;2.13;;;1.50;;